Impacts METAR Board
IDs:

KUTS - Huntsville Muni, TX, US

Updated at: 0500 UTC 19 Aug 2019
Potential Impact None Slight Moderate High
Time 18/17Z 18/18Z 18/19Z 18/20Z 18/21Z 18/22Z 18/23Z 19/00Z 19/01Z 19/02Z 19/03Z 19/04Z 19/05Z
Temp95 96 98 100 99 99 99 97 94 90 89 87 85
Dewpt72 71 69 70 71 70 69 70 72 75 74 74 74
Altim29.94 29.93 29.92 29.89 29.88 29.87 29.87 29.87 29.87 29.89 29.90 29.94 29.94
VIS10 10 10 10 10 10 10 10 10 10 10 10 10
CIG-- -- -- -- -- -- -- -- -- -- -- -- --
CoverFEWSCTCLRFEWFEWCLRSCTCLRCLRCLRCLRCLRCLR
FltCatVFRVFRVFRVFRVFRVFRVFRVFRVFRVFRVFRVFRVFR
WX--------------------------
WDir19022020018018017016017016001600170
WSpd11 8 8 9 9 6 7 8 8 5 5 4 5
WGst15 14 16 -- 16 -- -- -- -- -- -- -- --
Raw hourly METARs
KUTS 181653Z AUTO 19011G15KT 10SM FEW038 35/22 A2994 RMK AO2 SLP131 T03500222
KUTS 181753Z AUTO 22008G14KT 10SM SCT044 36/22 A2993 RMK AO2 SLP128 T03560217 10356 20261 58005
KUTS 181853Z AUTO 20008G16KT 180V250 10SM CLR 37/21 A2992 RMK AO2 SLP124 T03670206
KUTS 181953Z AUTO 18009KT 10SM FEW060 FEW090 38/21 A2989 RMK AO2 SLP116 T03780211
KUTS 182053Z AUTO 18009G16KT 10SM FEW080 37/22 A2988 RMK AO2 SLP111 T03720217 58017
KUTS 182153Z AUTO 17006KT 10SM CLR 37/21 A2987 RMK AO2 SLP106 T03720211
KUTS 182253Z AUTO 16007KT 10SM FEW060 SCT080 37/21 A2987 RMK AO2 SLP108 T03720206
KUTS 182353Z AUTO 17008KT 10SM CLR 36/21 A2987 RMK AO2 SLP108 T03610211 10378 20356 56003
KUTS 190053Z AUTO 16008KT 10SM CLR 34/22 A2987 RMK AO2 SLP108 T03440222
KUTS 190153Z AUTO VRB05KT 10SM CLR 32/24 A2989 RMK AO2 SLP113 T03220239
KUTS 190253Z AUTO 16005KT 10SM CLR 32/23 A2990 RMK AO2 SLP119 T03170233 53011
KUTS 190353Z AUTO VRB04KT 10SM CLR 31/23 A2994 RMK AO2 SLP130 T03060233
KUTS 190453Z AUTO 17005KT 10SM CLR 29/23 A2994 RMK AO2 SLP132 T02940233



Page loaded:  05:26 UTC  |   10:26 PM Pacific  |   11:26 PM Mountain  |   12:26 AM Central  |   01:26 AM Eastern

 

ADVISORIES

FORECASTS

FORECASTS

OBSERVATIONS

USER TOOLS

ABOUT US